sensor_id;sensor_type;location;lat;lon;timestamp;P1;durP1;ratioP1;P2;durP2;ratioP2
32186;SDS011;18686;53.084;8.872;2024-02-26T00:01:50;7.97;;;7.18;;
32186;SDS011;18686;53.084;8.872;2024-02-26T00:04:21;9.32;;;8.20;;
32186;SDS011;18686;53.084;8.872;2024-02-26T00:06:55;9.40;;;8.38;;
32186;SDS011;18686;53.084;8.872;2024-02-26T00:09:25;9.43;;;8.52;;
32186;SDS011;18686;53.084;8.872;2024-02-26T00:11:56;10.07;;;8.95;;
32186;SDS011;18686;53.084;8.872;2024-02-26T00:14:32;9.18;;;8.25;;
32186;SDS011;18686;53.084;8.872;2024-02-26T00:17:11;10.40;;;9.40;;
32186;SDS011;18686;53.084;8.872;2024-02-26T00:19:56;10.02;;;9.02;;
32186;SDS011;18686;53.084;8.872;2024-02-26T00:25:14;8.95;;;8.05;;
32186;SDS011;18686;53.084;8.872;2024-02-26T00:27:44;10.85;;;9.05;;
32186;SDS011;18686;53.084;8.872;2024-02-26T00:30:53;10.13;;;9.07;;
32186;SDS011;18686;53.084;8.872;2024-02-26T00:33:45;9.57;;;8.57;;
32186;SDS011;18686;53.084;8.872;2024-02-26T00:36:17;9.05;;;8.15;;
32186;SDS011;18686;53.084;8.872;2024-02-26T00:38:48;9.45;;;7.90;;
32186;SDS011;18686;53.084;8.872;2024-02-26T00:41:19;8.95;;;8.05;;
32186;SDS011;18686;53.084;8.872;2024-02-26T00:43:48;9.20;;;8.30;;
32186;SDS011;18686;53.084;8.872;2024-02-26T00:46:17;9.07;;;8.18;;
32186;SDS011;18686;53.084;8.872;2024-02-26T00:48:46;8.27;;;7.47;;
32186;SDS011;18686;53.084;8.872;2024-02-26T00:51:15;10.43;;;8.35;;
32186;SDS011;18686;53.084;8.872;2024-02-26T00:53:48;8.68;;;7.78;;
32186;SDS011;18686;53.084;8.872;2024-02-26T00:56:17;9.32;;;7.78;;
32186;SDS011;18686;53.084;8.872;2024-02-26T00:58:47;8.25;;;7.45;;
32186;SDS011;18686;53.084;8.872;2024-02-26T01:01:16;8.68;;;7.80;;
32186;SDS011;18686;53.084;8.872;2024-02-26T01:03:45;8.32;;;7.53;;
32186;SDS011;18686;53.084;8.872;2024-02-26T01:06:14;8.25;;;7.45;;
32186;SDS011;18686;53.084;8.872;2024-02-26T01:08:43;9.65;;;8.65;;
32186;SDS011;18686;53.084;8.872;2024-02-26T01:11:14;9.43;;;8.43;;
32186;SDS011;18686;53.084;8.872;2024-02-26T01:13:43;9.85;;;8.85;;
32186;SDS011;18686;53.084;8.872;2024-02-26T01:16:12;9.68;;;8.68;;
32186;SDS011;18686;53.084;8.872;2024-02-26T01:18:41;8.45;;;7.63;;
32186;SDS011;18686;53.084;8.872;2024-02-26T01:21:11;8.95;;;8.05;;
32186;SDS011;18686;53.084;8.872;2024-02-26T01:23:40;8.45;;;7.65;;
32186;SDS011;18686;53.084;8.872;2024-02-26T01:26:09;8.00;;;7.25;;
32186;SDS011;18686;53.084;8.872;2024-02-26T01:28:40;9.57;;;8.50;;
32186;SDS011;18686;53.084;8.872;2024-02-26T01:31:09;9.70;;;8.57;;
32186;SDS011;18686;53.084;8.872;2024-02-26T01:33:38;8.45;;;7.60;;
32186;SDS011;18686;53.084;8.872;2024-02-26T01:36:07;8.60;;;7.70;;
32186;SDS011;18686;53.084;8.872;2024-02-26T01:38:37;8.85;;;7.95;;
32186;SDS011;18686;53.084;8.872;2024-02-26T01:41:06;11.38;;;8.02;;
32186;SDS011;18686;53.084;8.872;2024-02-26T01:43:36;11.32;;;10.02;;
32186;SDS011;18686;53.084;8.872;2024-02-26T01:46:06;11.65;;;10.38;;
32186;SDS011;18686;53.084;8.872;2024-02-26T01:48:41;11.68;;;9.52;;
32186;SDS011;18686;53.084;8.872;2024-02-26T01:51:11;11.07;;;10.00;;
32186;SDS011;18686;53.084;8.872;2024-02-26T01:53:42;10.45;;;9.45;;
32186;SDS011;18686;53.084;8.872;2024-02-26T01:56:12;10.10;;;9.10;;
32186;SDS011;18686;53.084;8.872;2024-02-26T01:58:42;9.85;;;8.85;;
32186;SDS011;18686;53.084;8.872;2024-02-26T02:01:13;9.25;;;8.30;;
32186;SDS011;18686;53.084;8.872;2024-02-26T02:03:44;9.32;;;8.38;;
32186;SDS011;18686;53.084;8.872;2024-02-26T02:06:13;8.95;;;8.05;;
32186;SDS011;18686;53.084;8.872;2024-02-26T02:08:44;8.88;;;7.90;;
32186;SDS011;18686;53.084;8.872;2024-02-26T02:11:13;8.85;;;7.95;;
32186;SDS011;18686;53.084;8.872;2024-02-26T02:13:43;9.43;;;8.52;;
32186;SDS011;18686;53.084;8.872;2024-02-26T02:16:13;8.30;;;7.50;;
32186;SDS011;18686;53.084;8.872;2024-02-26T02:18:43;8.20;;;7.40;;
32186;SDS011;18686;53.084;8.872;2024-02-26T02:21:24;11.40;;;10.20;;
32186;SDS011;18686;53.084;8.872;2024-02-26T02:23:53;11.25;;;9.88;;
32186;SDS011;18686;53.084;8.872;2024-02-26T02:26:22;11.32;;;9.40;;
32186;SDS011;18686;53.084;8.872;2024-02-26T02:28:51;9.70;;;8.70;;
32186;SDS011;18686;53.084;8.872;2024-02-26T02:31:21;8.32;;;7.45;;
32186;SDS011;18686;53.084;8.872;2024-02-26T02:33:50;9.20;;;7.95;;
32186;SDS011;18686;53.084;8.872;2024-02-26T02:36:21;10.15;;;8.52;;
32186;SDS011;18686;53.084;8.872;2024-02-26T02:38:50;11.13;;;9.05;;
32186;SDS011;18686;53.084;8.872;2024-02-26T02:41:19;9.43;;;8.43;;
32186;SDS011;18686;53.084;8.872;2024-02-26T02:43:48;9.60;;;8.48;;
32186;SDS011;18686;53.084;8.872;2024-02-26T02:46:17;9.65;;;8.20;;
32186;SDS011;18686;53.084;8.872;2024-02-26T02:48:46;11.02;;;9.23;;
32186;SDS011;18686;53.084;8.872;2024-02-26T02:51:15;9.73;;;8.73;;
32186;SDS011;18686;53.084;8.872;2024-02-26T02:53:45;9.77;;;8.73;;
32186;SDS011;18686;53.084;8.872;2024-02-26T02:56:14;9.55;;;8.55;;
32186;SDS011;18686;53.084;8.872;2024-02-26T02:58:43;10.07;;;9.07;;
32186;SDS011;18686;53.084;8.872;2024-02-26T03:01:12;10.07;;;9.07;;
32186;SDS011;18686;53.084;8.872;2024-02-26T03:03:42;9.63;;;8.73;;
32186;SDS011;18686;53.084;8.872;2024-02-26T03:06:11;9.63;;;8.63;;
32186;SDS011;18686;53.084;8.872;2024-02-26T03:08:40;9.82;;;8.80;;
32186;SDS011;18686;53.084;8.872;2024-02-26T03:11:14;9.32;;;8.35;;
32186;SDS011;18686;53.084;8.872;2024-02-26T03:13:43;9.05;;;8.02;;
32186;SDS011;18686;53.084;8.872;2024-02-26T03:16:12;11.15;;;9.68;;
32186;SDS011;18686;53.084;8.872;2024-02-26T03:18:42;12.13;;;10.30;;
32186;SDS011;18686;53.084;8.872;2024-02-26T03:21:11;11.30;;;10.13;;
32186;SDS011;18686;53.084;8.872;2024-02-26T03:23:41;11.60;;;9.60;;
32186;SDS011;18686;53.084;8.872;2024-02-26T03:26:11;10.65;;;9.55;;
32186;SDS011;18686;53.084;8.872;2024-02-26T03:28:43;9.80;;;8.80;;
32186;SDS011;18686;53.084;8.872;2024-02-26T03:31:12;11.40;;;10.30;;
32186;SDS011;18686;53.084;8.872;2024-02-26T03:33:41;11.48;;;10.27;;
32186;SDS011;18686;53.084;8.872;2024-02-26T03:36:11;10.43;;;9.23;;
32186;SDS011;18686;53.084;8.872;2024-02-26T03:38:40;13.65;;;11.75;;
32186;SDS011;18686;53.084;8.872;2024-02-26T03:41:11;12.43;;;11.13;;
32186;SDS011;18686;53.084;8.872;2024-02-26T03:43:40;11.82;;;10.60;;
32186;SDS011;18686;53.084;8.872;2024-02-26T03:46:30;11.52;;;10.32;;
32186;SDS011;18686;53.084;8.872;2024-02-26T03:48:59;11.73;;;10.52;;
32186;SDS011;18686;53.084;8.872;2024-02-26T03:51:30;11.45;;;10.27;;
32186;SDS011;18686;53.084;8.872;2024-02-26T03:53:59;10.80;;;9.70;;
32186;SDS011;18686;53.084;8.872;2024-02-26T03:56:29;11.48;;;10.27;;
32186;SDS011;18686;53.084;8.872;2024-02-26T03:59:00;13.55;;;11.23;;
32186;SDS011;18686;53.084;8.872;2024-02-26T04:01:29;11.98;;;10.73;;
32186;SDS011;18686;53.084;8.872;2024-02-26T04:03:58;13.63;;;11.63;;
32186;SDS011;18686;53.084;8.872;2024-02-26T04:06:27;12.82;;;11.52;;
32186;SDS011;18686;53.084;8.872;2024-02-26T04:08:56;11.90;;;10.70;;
32186;SDS011;18686;53.084;8.872;2024-02-26T04:11:25;12.73;;;11.35;;
32186;SDS011;18686;53.084;8.872;2024-02-26T04:13:56;11.98;;;10.70;;
32186;SDS011;18686;53.084;8.872;2024-02-26T04:16:27;12.18;;;10.45;;
32186;SDS011;18686;53.084;8.872;2024-02-26T04:18:56;12.57;;;11.15;;
32186;SDS011;18686;53.084;8.872;2024-02-26T04:21:26;15.52;;;11.35;;
32186;SDS011;18686;53.084;8.872;2024-02-26T04:23:57;12.70;;;11.40;;
32186;SDS011;18686;53.084;8.872;2024-02-26T04:26:29;13.13;;;11.70;;
32186;SDS011;18686;53.084;8.872;2024-02-26T04:29:01;12.68;;;11.30;;
32186;SDS011;18686;53.084;8.872;2024-02-26T04:31:44;12.88;;;10.75;;
32186;SDS011;18686;53.084;8.872;2024-02-26T04:34:26;12.82;;;11.43;;
32186;SDS011;18686;53.084;8.872;2024-02-26T04:36:59;15.10;;;13.07;;
32186;SDS011;18686;53.084;8.872;2024-02-26T04:39:37;13.65;;;12.10;;
32186;SDS011;18686;53.084;8.872;2024-02-26T04:42:06;13.73;;;11.98;;
32186;SDS011;18686;53.084;8.872;2024-02-26T04:44:36;13.18;;;11.77;;
32186;SDS011;18686;53.084;8.872;2024-02-26T04:47:06;13.77;;;11.63;;
32186;SDS011;18686;53.084;8.872;2024-02-26T04:49:35;12.88;;;11.18;;
32186;SDS011;18686;53.084;8.872;2024-02-26T04:52:05;13.38;;;11.18;;
32186;SDS011;18686;53.084;8.872;2024-02-26T04:54:34;13.38;;;11.80;;
32186;SDS011;18686;53.084;8.872;2024-02-26T04:57:12;12.50;;;11.05;;
32186;SDS011;18686;53.084;8.872;2024-02-26T04:59:41;12.27;;;10.80;;
32186;SDS011;18686;53.084;8.872;2024-02-26T05:02:13;13.07;;;11.00;;
32186;SDS011;18686;53.084;8.872;2024-02-26T05:04:42;12.90;;;11.35;;
32186;SDS011;18686;53.084;8.872;2024-02-26T05:07:11;13.70;;;11.85;;
32186;SDS011;18686;53.084;8.872;2024-02-26T05:09:41;14.02;;;11.88;;
32186;SDS011;18686;53.084;8.872;2024-02-26T05:12:10;13.32;;;11.60;;
32186;SDS011;18686;53.084;8.872;2024-02-26T05:14:39;13.80;;;11.15;;
32186;SDS011;18686;53.084;8.872;2024-02-26T05:17:08;13.90;;;11.15;;
32186;SDS011;18686;53.084;8.872;2024-02-26T05:19:39;14.38;;;12.20;;
32186;SDS011;18686;53.084;8.872;2024-02-26T05:22:08;13.30;;;11.48;;
32186;SDS011;18686;53.084;8.872;2024-02-26T05:24:37;13.23;;;11.55;;
32186;SDS011;18686;53.084;8.872;2024-02-26T05:27:06;13.40;;;11.95;;
32186;SDS011;18686;53.084;8.872;2024-02-26T05:29:36;13.68;;;11.55;;
32186;SDS011;18686;53.084;8.872;2024-02-26T05:32:05;10.98;;;9.85;;
32186;SDS011;18686;53.084;8.872;2024-02-26T05:34:34;14.32;;;12.52;;
32186;SDS011;18686;53.084;8.872;2024-02-26T05:37:05;16.30;;;14.30;;
32186;SDS011;18686;53.084;8.872;2024-02-26T05:39:40;14.80;;;12.13;;
32186;SDS011;18686;53.084;8.872;2024-02-26T05:42:33;15.15;;;13.10;;
32186;SDS011;18686;53.084;8.872;2024-02-26T05:45:02;14.95;;;12.00;;
32186;SDS011;18686;53.084;8.872;2024-02-26T05:47:33;14.60;;;12.73;;
32186;SDS011;18686;53.084;8.872;2024-02-26T05:50:02;15.50;;;12.40;;
32186;SDS011;18686;53.084;8.872;2024-02-26T05:52:34;14.73;;;12.45;;
32186;SDS011;18686;53.084;8.872;2024-02-26T05:55:04;14.93;;;11.80;;
32186;SDS011;18686;53.084;8.872;2024-02-26T05:57:33;13.85;;;11.98;;
32186;SDS011;18686;53.084;8.872;2024-02-26T06:00:06;17.52;;;13.63;;
32186;SDS011;18686;53.084;8.872;2024-02-26T06:02:41;15.43;;;13.25;;
32186;SDS011;18686;53.084;8.872;2024-02-26T06:05:10;19.00;;;15.05;;
32186;SDS011;18686;53.084;8.872;2024-02-26T06:07:40;15.65;;;13.68;;
32186;SDS011;18686;53.084;8.872;2024-02-26T06:10:11;16.13;;;13.23;;
32186;SDS011;18686;53.084;8.872;2024-02-26T06:12:42;18.33;;;15.10;;
32186;SDS011;18686;53.084;8.872;2024-02-26T06:15:11;17.08;;;14.40;;
32186;SDS011;18686;53.084;8.872;2024-02-26T06:17:41;17.00;;;14.60;;
32186;SDS011;18686;53.084;8.872;2024-02-26T06:23:31;22.55;;;17.58;;
32186;SDS011;18686;53.084;8.872;2024-02-26T06:27:05;23.95;;;17.63;;
32186;SDS011;18686;53.084;8.872;2024-02-26T06:29:44;25.10;;;18.65;;
32186;SDS011;18686;53.084;8.872;2024-02-26T06:32:22;28.80;;;21.27;;
32186;SDS011;18686;53.084;8.872;2024-02-26T06:34:54;28.25;;;21.08;;
32186;SDS011;18686;53.084;8.872;2024-02-26T06:37:40;28.17;;;21.48;;
32186;SDS011;18686;53.084;8.872;2024-02-26T06:40:11;29.50;;;21.35;;
32186;SDS011;18686;53.084;8.872;2024-02-26T06:42:39;30.25;;;21.42;;
32186;SDS011;18686;53.084;8.872;2024-02-26T06:45:14;32.28;;;22.75;;
32186;SDS011;18686;53.084;8.872;2024-02-26T06:47:43;32.50;;;22.58;;
32186;SDS011;18686;53.084;8.872;2024-02-26T06:50:12;34.28;;;24.60;;
32186;SDS011;18686;53.084;8.872;2024-02-26T06:52:42;33.05;;;23.58;;
32186;SDS011;18686;53.084;8.872;2024-02-26T06:55:14;33.72;;;22.52;;
32186;SDS011;18686;53.084;8.872;2024-02-26T06:57:43;34.45;;;23.50;;
32186;SDS011;18686;53.084;8.872;2024-02-26T07:00:12;30.50;;;23.02;;
32186;SDS011;18686;53.084;8.872;2024-02-26T07:02:43;36.10;;;22.98;;
32186;SDS011;18686;53.084;8.872;2024-02-26T07:05:12;31.17;;;22.52;;
32186;SDS011;18686;53.084;8.872;2024-02-26T07:07:41;31.67;;;21.98;;
32186;SDS011;18686;53.084;8.872;2024-02-26T07:10:11;32.28;;;23.00;;
32186;SDS011;18686;53.084;8.872;2024-02-26T07:16:19;35.78;;;24.10;;
32186;SDS011;18686;53.084;8.872;2024-02-26T07:19:58;31.38;;;21.75;;
32186;SDS011;18686;53.084;8.872;2024-02-26T07:23:12;32.25;;;22.75;;
32186;SDS011;18686;53.084;8.872;2024-02-26T07:25:58;31.15;;;22.48;;
32186;SDS011;18686;53.084;8.872;2024-02-26T07:28:35;34.60;;;22.95;;
32186;SDS011;18686;53.084;8.872;2024-02-26T07:33:53;32.92;;;22.80;;
32186;SDS011;18686;53.084;8.872;2024-02-26T07:36:23;32.80;;;23.05;;
32186;SDS011;18686;53.084;8.872;2024-02-26T07:38:53;31.92;;;22.77;;
32186;SDS011;18686;53.084;8.872;2024-02-26T07:41:22;31.27;;;22.48;;
32186;SDS011;18686;53.084;8.872;2024-02-26T07:43:53;29.77;;;21.55;;
32186;SDS011;18686;53.084;8.872;2024-02-26T07:46:23;28.80;;;21.20;;
32186;SDS011;18686;53.084;8.872;2024-02-26T07:49:02;29.98;;;20.98;;
32186;SDS011;18686;53.084;8.872;2024-02-26T07:51:32;32.33;;;22.52;;
32186;SDS011;18686;53.084;8.872;2024-02-26T07:54:01;35.97;;;22.83;;
32186;SDS011;18686;53.084;8.872;2024-02-26T07:56:31;30.45;;;21.20;;
32186;SDS011;18686;53.084;8.872;2024-02-26T07:59:02;31.67;;;22.83;;
32186;SDS011;18686;53.084;8.872;2024-02-26T08:01:31;32.78;;;22.88;;
32186;SDS011;18686;53.084;8.872;2024-02-26T08:04:02;28.13;;;20.92;;
32186;SDS011;18686;53.084;8.872;2024-02-26T08:06:38;31.05;;;22.50;;
32186;SDS011;18686;53.084;8.872;2024-02-26T08:09:10;28.25;;;20.42;;
32186;SDS011;18686;53.084;8.872;2024-02-26T08:11:39;28.98;;;20.83;;
32186;SDS011;18686;53.084;8.872;2024-02-26T08:14:10;32.08;;;22.65;;
32186;SDS011;18686;53.084;8.872;2024-02-26T08:16:40;32.40;;;23.08;;
32186;SDS011;18686;53.084;8.872;2024-02-26T08:19:09;30.75;;;22.17;;
32186;SDS011;18686;53.084;8.872;2024-02-26T08:21:41;30.30;;;20.85;;
32186;SDS011;18686;53.084;8.872;2024-02-26T08:24:10;28.30;;;21.23;;
32186;SDS011;18686;53.084;8.872;2024-02-26T08:26:39;28.05;;;18.90;;
32186;SDS011;18686;53.084;8.872;2024-02-26T08:29:08;31.58;;;22.52;;
32186;SDS011;18686;53.084;8.872;2024-02-26T08:31:38;29.45;;;20.58;;
32186;SDS011;18686;53.084;8.872;2024-02-26T08:34:09;26.92;;;19.80;;
32186;SDS011;18686;53.084;8.872;2024-02-26T08:36:38;27.27;;;19.95;;
32186;SDS011;18686;53.084;8.872;2024-02-26T08:39:07;27.90;;;20.52;;
32186;SDS011;18686;53.084;8.872;2024-02-26T08:41:50;26.23;;;19.17;;
32186;SDS011;18686;53.084;8.872;2024-02-26T08:56:14;27.70;;;18.88;;
32186;SDS011;18686;53.084;8.872;2024-02-26T08:59:30;24.70;;;18.13;;
32186;SDS011;18686;53.084;8.872;2024-02-26T09:01:59;25.58;;;18.60;;
32186;SDS011;18686;53.084;8.872;2024-02-26T09:04:28;25.55;;;19.38;;
32186;SDS011;18686;53.084;8.872;2024-02-26T09:06:58;24.30;;;18.40;;
32186;SDS011;18686;53.084;8.872;2024-02-26T09:09:28;23.70;;;18.08;;
32186;SDS011;18686;53.084;8.872;2024-02-26T09:11:57;23.23;;;16.85;;
32186;SDS011;18686;53.084;8.872;2024-02-26T09:14:45;20.50;;;15.32;;
32186;SDS011;18686;53.084;8.872;2024-02-26T09:17:14;21.60;;;15.85;;
32186;SDS011;18686;53.084;8.872;2024-02-26T09:19:43;20.02;;;15.13;;
32186;SDS011;18686;53.084;8.872;2024-02-26T09:26:43;20.20;;;15.82;;
32186;SDS011;18686;53.084;8.872;2024-02-26T09:30:23;17.65;;;14.05;;
32186;SDS011;18686;53.084;8.872;2024-02-26T09:34:04;22.13;;;15.30;;
32186;SDS011;18686;53.084;8.872;2024-02-26T09:36:58;16.98;;;13.40;;
32186;SDS011;18686;53.084;8.872;2024-02-26T09:39:49;18.83;;;13.95;;
32186;SDS011;18686;53.084;8.872;2024-02-26T09:42:19;18.90;;;14.05;;
32186;SDS011;18686;53.084;8.872;2024-02-26T09:44:49;17.45;;;13.93;;
32186;SDS011;18686;53.084;8.872;2024-02-26T09:47:23;17.63;;;14.70;;
32186;SDS011;18686;53.084;8.872;2024-02-26T09:49:55;16.13;;;13.00;;
32186;SDS011;18686;53.084;8.872;2024-02-26T09:52:28;18.65;;;13.02;;
32186;SDS011;18686;53.084;8.872;2024-02-26T09:55:01;18.27;;;13.38;;
32186;SDS011;18686;53.084;8.872;2024-02-26T10:02:09;14.10;;;10.98;;
32186;SDS011;18686;53.084;8.872;2024-02-26T10:04:41;13.13;;;10.60;;
32186;SDS011;18686;53.084;8.872;2024-02-26T10:15:21;11.32;;;8.55;;
32186;SDS011;18686;53.084;8.872;2024-02-26T10:17:50;11.02;;;8.05;;
32186;SDS011;18686;53.084;8.872;2024-02-26T10:20:19;10.13;;;8.63;;
32186;SDS011;18686;53.084;8.872;2024-02-26T10:22:51;11.73;;;9.65;;
32186;SDS011;18686;53.084;8.872;2024-02-26T10:25:20;10.73;;;8.77;;
32186;SDS011;18686;53.084;8.872;2024-02-26T10:27:49;9.75;;;8.35;;
32186;SDS011;18686;53.084;8.872;2024-02-26T10:30:22;8.93;;;7.95;;
32186;SDS011;18686;53.084;8.872;2024-02-26T10:32:52;7.78;;;6.97;;
32186;SDS011;18686;53.084;8.872;2024-02-26T10:35:34;8.32;;;7.15;;
32186;SDS011;18686;53.084;8.872;2024-02-26T10:51:35;7.18;;;6.20;;
32186;SDS011;18686;53.084;8.872;2024-02-26T10:54:09;8.00;;;5.85;;
32186;SDS011;18686;53.084;8.872;2024-02-26T10:56:41;6.22;;;5.63;;
32186;SDS011;18686;53.084;8.872;2024-02-26T10:59:11;6.22;;;5.63;;
32186;SDS011;18686;53.084;8.872;2024-02-26T11:02:00;7.22;;;5.95;;
32186;SDS011;18686;53.084;8.872;2024-02-26T11:04:30;7.38;;;5.82;;
32186;SDS011;18686;53.084;8.872;2024-02-26T11:07:01;6.97;;;5.65;;
32186;SDS011;18686;53.084;8.872;2024-02-26T11:09:33;5.32;;;4.82;;
32186;SDS011;18686;53.084;8.872;2024-02-26T11:12:08;6.18;;;5.05;;
32186;SDS011;18686;53.084;8.872;2024-02-26T11:14:39;5.95;;;5.30;;
32186;SDS011;18686;53.084;8.872;2024-02-26T11:17:12;8.02;;;5.70;;
32186;SDS011;18686;53.084;8.872;2024-02-26T11:19:44;6.18;;;5.40;;
32186;SDS011;18686;53.084;8.872;2024-02-26T11:22:16;6.80;;;5.50;;
32186;SDS011;18686;53.084;8.872;2024-02-26T11:24:51;5.65;;;4.82;;
32186;SDS011;18686;53.084;8.872;2024-02-26T11:27:22;7.15;;;5.20;;
32186;SDS011;18686;53.084;8.872;2024-02-26T11:29:57;5.15;;;4.50;;
32186;SDS011;18686;53.084;8.872;2024-02-26T11:32:28;7.80;;;4.97;;
32186;SDS011;18686;53.084;8.872;2024-02-26T11:34:58;7.05;;;6.13;;
32186;SDS011;18686;53.084;8.872;2024-02-26T11:37:29;5.47;;;4.90;;
32186;SDS011;18686;53.084;8.872;2024-02-26T11:40:05;6.30;;;5.25;;
32186;SDS011;18686;53.084;8.872;2024-02-26T11:42:43;7.88;;;6.63;;
32186;SDS011;18686;53.084;8.872;2024-02-26T11:48:23;7.25;;;6.38;;
32186;SDS011;18686;53.084;8.872;2024-02-26T11:50:53;6.65;;;6.00;;
32186;SDS011;18686;53.084;8.872;2024-02-26T11:53:25;6.78;;;6.05;;
32186;SDS011;18686;53.084;8.872;2024-02-26T11:58:53;10.73;;;7.30;;
32186;SDS011;18686;53.084;8.872;2024-02-26T12:01:44;7.72;;;6.65;;
32186;SDS011;18686;53.084;8.872;2024-02-26T12:04:17;7.43;;;6.53;;
32186;SDS011;18686;53.084;8.872;2024-02-26T12:06:50;7.30;;;6.30;;
32186;SDS011;18686;53.084;8.872;2024-02-26T12:12:09;6.40;;;5.60;;
32186;SDS011;18686;53.084;8.872;2024-02-26T12:14:39;7.55;;;5.85;;
32186;SDS011;18686;53.084;8.872;2024-02-26T12:17:18;8.57;;;7.10;;
32186;SDS011;18686;53.084;8.872;2024-02-26T12:19:48;7.93;;;6.57;;
32186;SDS011;18686;53.084;8.872;2024-02-26T12:22:17;6.65;;;6.00;;
32186;SDS011;18686;53.084;8.872;2024-02-26T12:24:48;7.75;;;6.95;;
32186;SDS011;18686;53.084;8.872;2024-02-26T12:27:29;7.93;;;7.13;;
32186;SDS011;18686;53.084;8.872;2024-02-26T12:29:58;6.68;;;5.10;;
32186;SDS011;18686;53.084;8.872;2024-02-26T12:32:27;6.93;;;5.65;;
32186;SDS011;18686;53.084;8.872;2024-02-26T12:34:56;6.22;;;5.00;;
32186;SDS011;18686;53.084;8.872;2024-02-26T12:37:25;6.70;;;6.00;;
32186;SDS011;18686;53.084;8.872;2024-02-26T12:39:56;6.30;;;5.70;;
32186;SDS011;18686;53.084;8.872;2024-02-26T12:42:25;6.85;;;6.15;;
32186;SDS011;18686;53.084;8.872;2024-02-26T12:44:55;5.50;;;4.93;;
32186;SDS011;18686;53.084;8.872;2024-02-26T12:47:24;6.07;;;5.47;;
32186;SDS011;18686;53.084;8.872;2024-02-26T12:49:53;4.90;;;4.40;;
32186;SDS011;18686;53.084;8.872;2024-02-26T12:52:23;5.03;;;4.50;;
32186;SDS011;18686;53.084;8.872;2024-02-26T12:54:52;6.60;;;5.50;;
32186;SDS011;18686;53.084;8.872;2024-02-26T12:57:23;6.13;;;5.47;;
32186;SDS011;18686;53.084;8.872;2024-02-26T12:59:53;6.70;;;6.00;;
32186;SDS011;18686;53.084;8.872;2024-02-26T13:02:22;6.65;;;5.97;;
32186;SDS011;18686;53.084;8.872;2024-02-26T13:04:52;6.25;;;5.53;;
32186;SDS011;18686;53.084;8.872;2024-02-26T13:07:22;6.65;;;5.60;;
32186;SDS011;18686;53.084;8.872;2024-02-26T13:09:51;4.95;;;4.45;;
32186;SDS011;18686;53.084;8.872;2024-02-26T13:12:20;5.75;;;5.15;;
32186;SDS011;18686;53.084;8.872;2024-02-26T13:14:59;7.15;;;6.10;;
32186;SDS011;18686;53.084;8.872;2024-02-26T13:17:31;6.70;;;6.00;;
32186;SDS011;18686;53.084;8.872;2024-02-26T13:20:00;5.82;;;4.75;;
32186;SDS011;18686;53.084;8.872;2024-02-26T13:22:30;7.07;;;6.03;;
32186;SDS011;18686;53.084;8.872;2024-02-26T13:25:00;6.10;;;5.45;;
32186;SDS011;18686;53.084;8.872;2024-02-26T13:27:30;5.40;;;4.90;;
32186;SDS011;18686;53.084;8.872;2024-02-26T13:30:08;5.53;;;4.75;;
32186;SDS011;18686;53.084;8.872;2024-02-26T13:32:38;6.22;;;5.63;;
32186;SDS011;18686;53.084;8.872;2024-02-26T13:35:08;5.50;;;4.78;;
32186;SDS011;18686;53.084;8.872;2024-02-26T13:37:39;5.28;;;4.78;;
32186;SDS011;18686;53.084;8.872;2024-02-26T13:40:09;6.32;;;5.72;;
32186;SDS011;18686;53.084;8.872;2024-02-26T13:42:38;5.32;;;4.72;;
32186;SDS011;18686;53.084;8.872;2024-02-26T13:45:09;7.03;;;6.32;;
32186;SDS011;18686;53.084;8.872;2024-02-26T13:47:38;5.80;;;5.28;;
32186;SDS011;18686;53.084;8.872;2024-02-26T13:50:09;6.00;;;4.68;;
32186;SDS011;18686;53.084;8.872;2024-02-26T13:52:38;5.50;;;5.00;;
32186;SDS011;18686;53.084;8.872;2024-02-26T13:55:08;6.10;;;5.50;;
32186;SDS011;18686;53.084;8.872;2024-02-26T13:57:37;5.07;;;4.50;;
32186;SDS011;18686;53.084;8.872;2024-02-26T14:00:06;6.70;;;6.03;;
32186;SDS011;18686;53.084;8.872;2024-02-26T14:02:39;6.05;;;5.45;;
32186;SDS011;18686;53.084;8.872;2024-02-26T14:05:08;6.78;;;6.07;;
32186;SDS011;18686;53.084;8.872;2024-02-26T14:07:37;6.15;;;5.45;;
32186;SDS011;18686;53.084;8.872;2024-02-26T14:10:06;6.20;;;5.60;;
32186;SDS011;18686;53.084;8.872;2024-02-26T14:12:37;5.07;;;4.57;;
32186;SDS011;18686;53.084;8.872;2024-02-26T14:15:06;6.55;;;5.65;;
32186;SDS011;18686;53.084;8.872;2024-02-26T14:20:11;7.30;;;5.47;;
32186;SDS011;18686;53.084;8.872;2024-02-26T14:22:40;8.50;;;5.32;;
32186;SDS011;18686;53.084;8.872;2024-02-26T14:25:09;6.97;;;5.88;;
32186;SDS011;18686;53.084;8.872;2024-02-26T14:27:37;5.68;;;5.15;;
32186;SDS011;18686;53.084;8.872;2024-02-26T14:30:07;5.80;;;5.20;;
32186;SDS011;18686;53.084;8.872;2024-02-26T14:32:36;6.93;;;6.13;;
32186;SDS011;18686;53.084;8.872;2024-02-26T14:35:07;8.48;;;5.63;;
32186;SDS011;18686;53.084;8.872;2024-02-26T14:37:43;10.70;;;6.55;;
32186;SDS011;18686;53.084;8.872;2024-02-26T14:40:14;7.38;;;5.93;;
32186;SDS011;18686;53.084;8.872;2024-02-26T14:42:44;6.50;;;5.90;;
32186;SDS011;18686;53.084;8.872;2024-02-26T14:45:13;6.95;;;6.25;;
32186;SDS011;18686;53.084;8.872;2024-02-26T14:47:43;8.77;;;6.70;;
32186;SDS011;18686;53.084;8.872;2024-02-26T14:50:14;7.40;;;6.22;;
32186;SDS011;18686;53.084;8.872;2024-02-26T14:52:42;7.80;;;6.68;;
32186;SDS011;18686;53.084;8.872;2024-02-26T14:55:11;9.43;;;7.15;;
32186;SDS011;18686;53.084;8.872;2024-02-26T14:57:40;7.15;;;6.45;;
32186;SDS011;18686;53.084;8.872;2024-02-26T15:00:09;10.48;;;7.47;;
32186;SDS011;18686;53.084;8.872;2024-02-26T15:02:38;9.70;;;7.80;;
32186;SDS011;18686;53.084;8.872;2024-02-26T15:05:07;10.10;;;7.47;;
32186;SDS011;18686;53.084;8.872;2024-02-26T15:07:41;10.50;;;7.65;;
32186;SDS011;18686;53.084;8.872;2024-02-26T15:10:10;11.90;;;8.90;;
32186;SDS011;18686;53.084;8.872;2024-02-26T15:12:40;10.90;;;8.88;;
32186;SDS011;18686;53.084;8.872;2024-02-26T15:15:08;11.63;;;9.20;;
32186;SDS011;18686;53.084;8.872;2024-02-26T15:17:37;11.75;;;8.38;;
32186;SDS011;18686;53.084;8.872;2024-02-26T15:20:07;13.65;;;8.63;;
32186;SDS011;18686;53.084;8.872;2024-02-26T15:22:38;9.27;;;8.25;;
32186;SDS011;18686;53.084;8.872;2024-02-26T15:25:08;12.30;;;8.75;;
32186;SDS011;18686;53.084;8.872;2024-02-26T15:27:41;10.55;;;8.90;;
32186;SDS011;18686;53.084;8.872;2024-02-26T15:30:10;11.65;;;8.35;;
32186;SDS011;18686;53.084;8.872;2024-02-26T15:32:40;11.60;;;8.65;;
32186;SDS011;18686;53.084;8.872;2024-02-26T15:35:10;11.43;;;9.10;;
32186;SDS011;18686;53.084;8.872;2024-02-26T15:37:40;9.55;;;8.38;;
32186;SDS011;18686;53.084;8.872;2024-02-26T15:40:10;11.98;;;8.68;;
32186;SDS011;18686;53.084;8.872;2024-02-26T15:42:40;11.80;;;9.48;;
32186;SDS011;18686;53.084;8.872;2024-02-26T15:45:09;13.00;;;8.20;;
32186;SDS011;18686;53.084;8.872;2024-02-26T15:47:38;10.65;;;8.13;;
32186;SDS011;18686;53.084;8.872;2024-02-26T15:50:09;13.40;;;8.68;;
32186;SDS011;18686;53.084;8.872;2024-02-26T15:52:38;9.48;;;8.05;;
32186;SDS011;18686;53.084;8.872;2024-02-26T15:55:07;10.43;;;8.50;;
32186;SDS011;18686;53.084;8.872;2024-02-26T15:57:42;14.25;;;9.70;;
32186;SDS011;18686;53.084;8.872;2024-02-26T16:00:12;10.30;;;8.00;;
32186;SDS011;18686;53.084;8.872;2024-02-26T16:02:42;12.27;;;8.45;;
32186;SDS011;18686;53.084;8.872;2024-02-26T16:05:10;10.63;;;8.32;;
32186;SDS011;18686;53.084;8.872;2024-02-26T16:07:40;9.73;;;8.13;;
32186;SDS011;18686;53.084;8.872;2024-02-26T16:10:13;9.45;;;8.45;;
32186;SDS011;18686;53.084;8.872;2024-02-26T16:12:43;9.60;;;7.88;;